Time;durP1;ratioP1;P1;durP2;ratioP2;P2;SDS_P1;SDS_P2;PMS_P1;PMS_P2;Temp;Humidity;BMP_temperature;BMP_pressure;BME280_temperature;BME280_humidity;BME280_pressure;Samples;Min_cycle;Max_cycle;Signal;HPM_P1;HPM_P2
2022/12/24 00:00:58;;;;;;;7.53;2.35;;;;;;;10.99;53.27;100309.31;5061494;28;20048;-75
2022/12/24 00:03:28;;;;;;;9.05;2.65;;;;;;;11.00;52.99;100307.44;5042938;28;20051;-74
2022/12/24 00:05:56;;;;;;;8.13;2.28;;;;;;;10.98;52.66;100309.47;5046369;28;20047;-74
2022/12/24 00:08:24;;;;;;;6.75;2.33;;;;;;;10.98;53.14;100312.22;5068691;28;20036;-74
2022/12/24 00:10:53;;;;;;;5.40;2.10;;;;;;;10.99;52.49;100319.41;5066507;28;20516;-73
2022/12/24 00:13:21;;;;;;;8.85;2.08;;;;;;;10.97;52.38;100325.06;5036852;28;20056;-73
2022/12/24 00:15:49;;;;;;;6.50;2.28;;;;;;;10.97;52.54;100321.47;5048250;28;20033;-73
2022/12/24 00:18:17;;;;;;;6.93;2.00;;;;;;;10.95;52.41;100324.34;5062484;28;20061;-74
2022/12/24 00:20:47;;;;;;;9.65;2.28;;;;;;;10.95;52.18;100329.81;5034534;28;20040;-73
2022/12/24 00:23:16;;;;;;;9.07;2.42;;;;;;;10.95;52.85;100331.69;5050236;28;20056;-73
2022/12/24 00:25:44;;;;;;;8.73;2.13;;;;;;;10.94;52.66;100338.19;5053685;28;20046;-75
2022/12/24 00:28:13;;;;;;;9.52;2.60;;;;;;;10.93;52.58;100342.78;5054388;28;20135;-75
2022/12/24 00:30:42;;;;;;;10.63;2.33;;;;;;;10.93;52.38;100339.19;5058679;28;20405;-73
2022/12/24 00:33:10;;;;;;;9.00;2.50;;;;;;;10.90;52.58;100337.59;5044145;28;20143;-75
2022/12/24 00:35:39;;;;;;;11.05;2.38;;;;;;;10.90;52.05;100344.94;5059568;28;20055;-73
2022/12/24 00:38:09;;;;;;;9.73;2.13;;;;;;;10.89;51.96;100349.59;5062748;28;20058;-73
2022/12/24 00:40:37;;;;;;;9.88;2.50;;;;;;;10.86;52.05;100343.53;5056647;28;20091;-74
2022/12/24 00:43:04;;;;;;;8.65;2.15;;;;;;;10.85;52.50;100339.94;5046961;28;20136;-76
2022/12/24 00:45:32;;;;;;;10.30;2.60;;;;;;;10.84;52.06;100343.69;5051468;28;20041;-73
2022/12/24 00:48:00;;;;;;;12.18;2.70;;;;;;;10.83;52.16;100346.56;5052309;28;20296;-75
2022/12/24 00:50:28;;;;;;;11.93;2.33;;;;;;;10.82;52.19;100356.63;5029681;28;20559;-73
2022/12/24 00:52:56;;;;;;;9.38;2.30;;;;;;;10.81;52.47;100362.28;5038456;28;20502;-73
2022/12/24 00:55:25;;;;;;;7.60;2.42;;;;;;;10.81;51.92;100360.38;5052724;28;20075;-73
2022/12/24 00:57:53;;;;;;;8.85;2.53;;;;;;;10.79;52.01;100373.38;5054067;28;20068;-73
2022/12/24 01:00:21;;;;;;;6.80;2.13;;;;;;;10.79;51.90;100365.16;5065419;28;20033;-73
2022/12/24 01:02:49;;;;;;;9.73;2.45;;;;;;;10.77;52.41;100364.44;5066997;28;20055;-74
2022/12/24 01:05:19;;;;;;;8.75;2.70;;;;;;;10.76;52.44;100367.31;5049138;28;20128;-74
2022/12/24 01:07:46;;;;;;;10.27;2.17;;;;;;;10.76;52.18;100368.19;5029778;28;20703;-73
2022/12/24 01:10:16;;;;;;;10.70;2.53;;;;;;;10.77;52.10;100374.53;5052378;28;20098;-74
2022/12/24 01:12:47;;;;;;;9.80;2.40;;;;;;;10.76;52.58;100376.41;5058065;28;20119;-75
2022/12/24 01:15:15;;;;;;;8.80;2.30;;;;;;;10.75;52.54;100387.50;5035254;28;20049;-73
2022/12/24 01:17:43;;;;;;;7.15;2.42;;;;;;;10.72;52.84;100390.53;5040748;28;20406;-73
2022/12/24 01:20:16;;;;;;;9.63;2.13;;;;;;;10.74;52.30;100402.19;5035250;28;20476;-74
2022/12/24 01:22:45;;;;;;;9.40;2.88;;;;;;;10.72;52.77;100406.97;5060201;28;20044;-74
2022/12/24 01:25:13;;;;;;;9.48;2.17;;;;;;;10.71;52.92;100410.72;5043727;28;20428;-73
2022/12/24 01:27:41;;;;;;;9.73;2.10;;;;;;;10.69;52.99;100409.97;5057577;28;20041;-74
2022/12/24 01:30:13;;;;;;;10.30;2.50;;;;;;;10.71;52.76;100413.44;5057646;28;20063;-74
2022/12/24 01:32:41;;;;;;;9.25;2.63;;;;;;;10.66;52.81;100413.00;5059094;28;20097;-73
2022/12/24 01:35:11;;;;;;;10.50;3.28;;;;;;;10.67;52.88;100417.47;5055312;28;20064;-74
2022/12/24 01:37:39;;;;;;;9.65;2.53;;;;;;;10.66;53.18;100418.47;5051261;28;20286;-73
2022/12/24 01:45:47;;;;;;;6.55;1.90;;;;;;;10.64;52.96;100435.06;5050631;28;20041;-75
2022/12/24 01:48:35;;;;;;;8.27;2.60;;;;;;;10.62;52.89;100431.59;5043953;28;20230;-74
2022/12/24 01:51:09;;;;;;;6.05;1.98;;;;;;;10.61;53.08;100432.59;5040252;28;20424;-73
2022/12/24 01:53:39;;;;;;;8.10;2.20;;;;;;;10.60;52.86;100437.22;5043624;28;20080;-73
2022/12/24 01:56:08;;;;;;;8.85;2.05;;;;;;;10.59;52.79;100434.63;5065557;28;20053;-75
2022/12/24 01:58:39;;;;;;;6.43;2.15;;;;;;;10.58;52.69;100435.63;5058940;28;20033;-73
2022/12/24 02:01:09;;;;;;;9.77;2.28;;;;;;;10.58;52.95;100432.88;5063036;28;20500;-74
2022/12/24 02:03:37;;;;;;;9.48;2.30;;;;;;;10.56;53.34;100440.41;5068805;28;20071;-74
2022/12/24 02:06:06;;;;;;;8.48;2.05;;;;;;;10.55;53.15;100442.28;5041310;28;20067;-73
2022/12/24 02:08:39;;;;;;;8.35;2.53;;;;;;;10.54;52.77;100447.88;5064469;28;20044;-75
2022/12/24 02:11:12;;;;;;;9.35;2.40;;;;;;;10.55;52.96;100446.88;5060468;28;20044;-73
2022/12/24 02:13:40;;;;;;;;;;;;;;;10.26;53.49;100449.56;5054985;28;20124;-75
2022/12/24 02:16:21;;;;;;;7.88;2.00;;;;;;;10.49;52.89;100442.78;5076402;23;19935;-72
2022/12/24 02:19:00;;;;;;;8.10;2.13;;;;;;;10.51;52.48;100462.66;5051162;28;20041;-72
2022/12/24 02:21:58;;;;;;;8.25;2.22;;;;;;;10.46;52.14;100458.66;5031540;28;20564;-76
2022/12/24 02:24:54;;;;;;;10.07;2.50;;;;;;;10.47;52.50;100466.72;5030849;28;20103;-76
2022/12/24 02:27:32;;;;;;;6.63;1.80;;;;;;;10.46;52.39;100467.72;5031270;28;20136;-76
2022/12/24 02:30:06;;;;;;;8.25;2.08;;;;;;;10.45;52.47;100471.47;5030808;28;20442;-76
2022/12/24 02:32:43;;;;;;;9.65;2.08;;;;;;;10.43;52.42;100476.19;5031532;28;20038;-76
2022/12/24 02:35:15;;;;;;;10.15;1.85;;;;;;;10.42;52.86;100479.94;5030377;28;20501;-74
2022/12/24 02:37:49;;;;;;;5.50;2.08;;;;;;;10.40;52.63;100484.69;5031294;28;20046;-73
2022/12/24 02:40:22;;;;;;;7.97;2.05;;;;;;;10.41;52.72;100488.28;5030785;28;20057;-77
2022/12/24 02:42:54;;;;;;;7.55;2.05;;;;;;;10.40;52.45;100484.69;5013134;28;20180;-76
2022/12/24 02:45:28;;;;;;;7.75;2.03;;;;;;;10.38;52.72;100494.94;5030454;28;20076;-76
2022/12/24 02:47:56;;;;;;;9.98;2.20;;;;;;;10.37;52.67;100489.59;5031541;28;20448;-73
2022/12/24 02:50:25;;;;;;;11.38;3.00;;;;;;;10.36;52.77;100498.81;5030157;28;20030;-76
2022/12/24 02:52:53;;;;;;;5.68;1.75;;;;;;;10.35;52.91;100500.66;5031315;28;20041;-76
2022/12/24 02:55:25;;;;;;;10.77;2.47;;;;;;;10.35;52.39;100502.53;5030924;28;20056;-76
2022/12/24 02:58:07;;;;;;;8.07;2.25;;;;;;;10.34;52.32;100498.06;5012496;28;20049;-73
2022/12/24 03:00:47;;;;;;;8.25;2.35;;;;;;;10.31;52.25;100493.78;5012268;28;20049;-76
2022/12/24 03:03:33;;;;;;;9.75;2.35;;;;;;;10.32;52.20;100505.56;5012198;28;20480;-72
2022/12/24 03:06:09;;;;;;;8.90;1.90;;;;;;;10.30;52.33;100505.72;5030673;28;20606;-76
2022/12/24 03:08:48;;;;;;;7.85;2.00;;;;;;;10.30;52.65;100505.72;5030729;28;20132;-76
2022/12/24 03:11:18;;;;;;;8.52;2.15;;;;;;;10.29;52.71;100505.84;5030562;28;20065;-75
2022/12/24 03:13:48;;;;;;;9.07;2.00;;;;;;;10.31;52.60;100509.31;5030549;28;20076;-76
2022/12/24 03:16:22;;;;;;;10.07;2.08;;;;;;;10.31;52.66;100501.97;5030422;28;20049;-70
2022/12/24 03:18:53;;;;;;;8.48;2.53;;;;;;;10.30;52.62;100505.72;5029359;28;20041;-75
2022/12/24 03:21:27;;;;;;;7.22;2.28;;;;;;;10.31;52.56;100506.56;5030395;28;20051;-75
2022/12/24 03:23:55;;;;;;;8.82;2.17;;;;;;;10.30;53.11;100502.13;5011926;28;20049;-71
2022/12/24 03:26:24;;;;;;;8.07;2.03;;;;;;;10.30;52.87;100513.91;5030613;28;20052;-72
2022/12/24 03:28:52;;;;;;;9.02;1.90;;;;;;;10.30;53.36;100508.44;5030180;28;20041;-76
2022/12/24 03:31:21;;;;;;;8.80;2.63;;;;;;;10.32;53.24;100509.16;5012567;28;20037;-75
2022/12/24 03:33:50;;;;;;;6.97;2.10;;;;;;;10.32;53.06;100522.00;5029340;28;20124;-76
2022/12/24 03:36:18;;;;;;;8.25;1.95;;;;;;;10.32;53.02;100511.88;5029187;28;20045;-76
2022/12/24 03:38:46;;;;;;;6.68;1.98;;;;;;;10.33;53.13;100518.22;5029677;28;20033;-76
2022/12/24 03:41:14;;;;;;;6.55;1.80;;;;;;;10.34;53.09;100522.69;5025323;28;20057;-74
2022/12/24 03:43:41;;;;;;;5.80;2.00;;;;;;;10.34;53.16;100528.16;4992819;28;20073;-75
2022/12/24 03:46:09;;;;;;;7.53;2.05;;;;;;;10.36;53.46;100528.88;5010309;28;20064;-72
2022/12/24 03:48:39;;;;;;;5.63;1.85;;;;;;;10.38;53.63;100521.41;5010419;28;20160;-73
2022/12/24 03:51:17;;;;;;;7.18;1.73;;;;;;;10.39;53.18;100518.53;4991658;28;20058;-74
2022/12/24 03:53:45;;;;;;;7.28;2.33;;;;;;;10.37;53.57;100527.88;4991654;28;20050;-76
2022/12/24 03:56:13;;;;;;;6.97;1.73;;;;;;;10.39;53.19;100528.63;5009455;28;20037;-75
2022/12/24 03:58:41;;;;;;;8.07;1.92;;;;;;;10.38;53.77;100525.03;4991581;28;20137;-75
2022/12/24 04:01:08;;;;;;;5.68;1.95;;;;;;;10.38;53.62;100530.50;5010130;28;20324;-76
2022/12/24 04:03:37;;;;;;;6.28;1.60;;;;;;;10.38;53.71;100530.50;4991966;28;20206;-75
2022/12/24 04:06:08;;;;;;;7.43;1.92;;;;;;;10.41;53.60;100546.59;5009515;28;20042;-75
2022/12/24 04:08:37;;;;;;;7.47;1.90;;;;;;;10.38;53.54;100540.56;4991987;28;20068;-75
2022/12/24 04:11:06;;;;;;;5.03;1.58;;;;;;;10.39;53.68;100543.16;5009136;28;20072;-74
2022/12/24 04:13:37;;;;;;;5.70;1.75;;;;;;;10.39;53.88;100545.03;5008453;28;20113;-76
2022/12/24 04:16:07;;;;;;;6.78;1.60;;;;;;;10.42;53.72;100542.88;5008000;28;20086;-75
2022/12/24 04:18:36;;;;;;;7.50;2.03;;;;;;;10.42;53.62;100558.41;4992168;28;20049;-75
2022/12/24 04:21:06;;;;;;;4.07;1.63;;;;;;;10.42;53.71;100547.47;5009417;28;20069;-74
2022/12/24 04:23:36;;;;;;;4.43;1.60;;;;;;;10.43;53.71;100541.00;5008869;28;20045;-72
2022/12/24 04:26:06;;;;;;;5.38;1.65;;;;;;;10.42;53.24;100540.13;5008271;28;20056;-74
2022/12/24 04:28:34;;;;;;;4.57;1.42;;;;;;;10.43;53.30;100551.94;5008917;28;20456;-75
2022/12/24 04:31:05;;;;;;;6.97;1.67;;;;;;;10.43;53.72;100554.69;4990423;28;20057;-73
2022/12/24 04:33:33;;;;;;;6.35;1.70;;;;;;;10.41;53.31;100563.00;5008751;28;20434;-76
2022/12/24 04:36:02;;;;;;;4.72;1.75;;;;;;;10.43;53.60;100569.22;5008988;28;20042;-75
2022/12/24 04:38:32;;;;;;;6.72;1.73;;;;;;;10.42;53.23;100567.47;4991703;28;20054;-76
2022/12/24 04:41:00;;;;;;;5.88;1.70;;;;;;;10.42;53.39;100569.34;4990846;28;20537;-76
2022/12/24 04:43:29;;;;;;;5.82;1.45;;;;;;;10.42;53.26;100562.00;5009246;28;20033;-74
2022/12/24 04:46:04;;;;;;;6.47;1.40;;;;;;;10.44;53.11;100573.69;5008317;28;20046;-71
2022/12/24 04:48:32;;;;;;;4.93;1.50;;;;;;;10.41;53.41;100582.16;5008117;28;20046;-70
2022/12/24 04:51:01;;;;;;;5.32;1.60;;;;;;;10.42;53.78;100580.28;5008555;28;20038;-75
2022/12/24 04:53:30;;;;;;;5.97;1.50;;;;;;;10.40;53.40;100583.16;5009498;28;20126;-76
2022/12/24 04:55:59;;;;;;;9.90;2.28;;;;;;;10.42;53.25;100586.63;5008763;28;20042;-73
2022/12/24 04:58:27;;;;;;;3.85;1.40;;;;;;;10.40;53.47;100591.38;5008243;28;20046;-75
2022/12/24 05:00:56;;;;;;;4.85;1.52;;;;;;;10.40;53.77;100588.63;5008256;28;20049;-75
2022/12/24 05:03:24;;;;;;;7.28;1.73;;;;;;;10.40;53.86;100585.06;5008483;28;20572;-75
2022/12/24 05:05:52;;;;;;;5.10;1.63;;;;;;;10.40;53.71;100590.53;5008140;28;20046;-72
2022/12/24 05:08:28;;;;;;;6.78;1.70;;;;;;;10.40;53.80;100596.00;4991269;28;20054;-75
2022/12/24 05:10:56;;;;;;;5.95;1.98;;;;;;;10.41;53.56;100586.78;5008595;28;20462;-76
2022/12/24 05:13:26;;;;;;;3.85;1.50;;;;;;;10.42;53.75;100602.19;5009043;28;20338;-72
2022/12/24 05:16:07;;;;;;;5.90;1.90;;;;;;;10.37;53.99;100597.16;5012555;28;20565;-75
2022/12/24 05:18:35;;;;;;;6.22;1.90;;;;;;;10.39;53.22;100599.75;5012718;28;20050;-74
2022/12/24 05:21:03;;;;;;;5.03;1.60;;;;;;;10.39;53.51;100597.88;5010883;28;20069;-72
2022/12/24 05:26:21;;;;;;;6.63;1.98;;;;;;;10.37;53.71;100610.81;5012785;28;20045;-74
2022/12/24 05:28:52;;;;;;;5.38;2.20;;;;;;;10.38;53.43;100623.50;5011400;28;20125;-75
2022/12/24 05:31:21;;;;;;;7.95;2.65;;;;;;;10.37;53.70;100615.44;5012647;28;20061;-73
2022/12/24 05:33:48;;;;;;;6.18;2.08;;;;;;;10.36;53.43;100624.63;5012344;28;20053;-75
2022/12/24 05:36:16;;;;;;;6.70;2.22;;;;;;;10.36;53.39;100619.16;5011621;28;20072;-71
2022/12/24 05:38:44;;;;;;;6.63;1.92;;;;;;;10.36;53.43;100621.91;5011059;28;20041;-76
2022/12/24 05:41:12;;;;;;;7.53;2.40;;;;;;;10.35;53.79;100622.91;4995260;28;20046;-76
2022/12/24 05:43:40;;;;;;;7.45;2.05;;;;;;;10.35;53.98;100621.03;5012610;28;20398;-75
2022/12/24 05:46:12;;;;;;;7.22;1.80;;;;;;;10.37;53.68;100612.69;5011413;28;20053;-73
2022/12/24 05:48:40;;;;;;;5.97;1.77;;;;;;;10.33;53.44;100612.09;5012206;28;20495;-75
2022/12/24 05:51:11;;;;;;;4.78;1.70;;;;;;;10.36;53.85;100613.69;5011917;28;20050;-75
2022/12/24 05:53:40;;;;;;;4.95;1.65;;;;;;;10.36;53.78;100621.91;4993485;28;20049;-72
2022/12/24 05:56:11;;;;;;;5.80;1.90;;;;;;;10.36;53.89;100630.97;5011561;28;20089;-73
2022/12/24 05:58:42;;;;;;;5.30;1.80;;;;;;;10.37;53.78;100629.97;4994539;28;20049;-75
2022/12/24 06:01:12;;;;;;;7.35;2.50;;;;;;;10.37;53.81;100627.25;5011668;28;20084;-75
2022/12/24 06:03:40;;;;;;;6.68;1.92;;;;;;;10.36;53.69;100630.09;5012234;28;20281;-76
2022/12/24 06:06:10;;;;;;;5.85;1.90;;;;;;;10.38;53.89;100636.31;4994673;28;20406;-77
2022/12/24 06:08:39;;;;;;;7.78;2.03;;;;;;;10.37;53.69;100640.91;4994158;28;20521;-74
2022/12/24 06:11:10;;;;;;;6.63;2.30;;;;;;;10.37;53.37;100640.03;5010971;28;20056;-76
2022/12/24 06:13:38;;;;;;;5.43;1.73;;;;;;;10.36;53.44;100638.31;5011033;28;20042;-75
2022/12/24 06:16:08;;;;;;;7.28;1.90;;;;;;;10.36;53.73;100639.19;5011172;28;20457;-75
2022/12/24 06:18:37;;;;;;;5.18;1.90;;;;;;;10.37;53.55;100648.25;5011249;28;20051;-73
2022/12/24 06:21:06;;;;;;;7.47;1.90;;;;;;;10.36;53.79;100652.84;4993585;28;20335;-71
2022/12/24 06:23:37;;;;;;;5.55;2.03;;;;;;;10.37;53.89;100656.47;4998994;28;20549;-73
2022/12/24 06:26:07;;;;;;;6.78;2.10;;;;;;;10.37;53.39;100659.19;5030062;28;20378;-72
2022/12/24 06:28:37;;;;;;;8.48;2.20;;;;;;;10.36;53.76;100652.84;5030080;28;20049;-70
2022/12/24 06:31:06;;;;;;;7.57;1.88;;;;;;;10.35;53.45;100658.47;5029720;28;20050;-72
2022/12/24 06:33:34;;;;;;;5.80;1.77;;;;;;;10.35;54.04;100655.72;5031570;28;20068;-73
2022/12/24 06:36:06;;;;;;;8.55;2.10;;;;;;;10.36;53.34;100655.59;5030390;28;20049;-73
2022/12/24 06:38:43;;;;;;;6.95;1.80;;;;;;;10.34;54.00;100654.00;5011751;28;20042;-73
2022/12/24 06:41:11;;;;;;;8.27;2.33;;;;;;;10.35;54.05;100662.06;5011608;28;20056;-72
2022/12/24 06:43:42;;;;;;;7.53;2.50;;;;;;;10.36;53.93;100662.94;5018522;28;20582;-70
2022/12/24 06:46:10;;;;;;;8.07;1.90;;;;;;;10.35;53.60;100664.81;5009749;28;20058;-73
2022/12/24 06:48:38;;;;;;;7.88;2.30;;;;;;;10.36;54.01;100665.66;5011139;28;20045;-73
2022/12/24 06:51:08;;;;;;;10.43;2.20;;;;;;;10.38;53.46;100674.59;4993228;28;20045;-72
2022/12/24 06:53:35;;;;;;;8.80;2.58;;;;;;;10.37;53.96;100681.09;5011776;28;20085;-73
2022/12/24 06:56:05;;;;;;;7.32;2.20;;;;;;;10.39;54.00;100681.81;4993506;28;20501;-72
2022/12/24 06:58:33;;;;;;;8.07;2.50;;;;;;;10.38;53.69;100683.69;5003366;28;20049;-71
2022/12/24 07:01:01;;;;;;;7.40;2.40;;;;;;;10.40;53.94;100686.28;5012207;28;20136;-72
2022/12/24 07:03:30;;;;;;;6.10;2.40;;;;;;;10.40;53.54;100689.03;5030652;28;20033;-73
2022/12/24 07:06:00;;;;;;;9.05;2.72;;;;;;;10.40;53.46;100687.13;5030461;28;20060;-71
2022/12/24 07:08:32;;;;;;;8.38;2.88;;;;;;;10.42;53.94;100692.47;5030373;28;20048;-71
2022/12/24 07:11:00;;;;;;;8.55;2.45;;;;;;;10.39;54.01;100690.03;5012783;28;20056;-73
2022/12/24 07:13:28;;;;;;;7.10;2.40;;;;;;;10.40;53.48;100687.13;5031036;28;20105;-72
2022/12/24 07:16:00;;;;;;;9.55;2.38;;;;;;;10.43;53.75;100689.59;5030251;28;20464;-71
2022/12/24 07:18:29;;;;;;;8.73;2.20;;;;;;;10.39;53.45;100699.09;5012459;28;20053;-72
2022/12/24 07:20:57;;;;;;;6.40;2.50;;;;;;;10.41;53.89;100691.59;5029742;28;20377;-73
2022/12/24 07:23:25;;;;;;;6.45;2.08;;;;;;;10.41;53.75;100702.53;5030777;28;20436;-70
2022/12/24 07:25:54;;;;;;;11.32;2.30;;;;;;;10.42;53.30;100695.19;5029270;28;20038;-72
2022/12/24 07:28:22;;;;;;;8.52;2.30;;;;;;;10.39;53.45;100699.09;5029893;28;20107;-72
2022/12/24 07:30:55;;;;;;;7.60;2.55;;;;;;;10.38;53.16;100708.31;5030305;28;20038;-73
2022/12/24 07:33:23;;;;;;;9.32;2.20;;;;;;;10.39;53.38;100711.91;5030544;28;20613;-73
2022/12/24 07:35:58;;;;;;;7.13;2.08;;;;;;;10.41;52.66;100723.56;5029677;28;20038;-73
2022/12/24 07:38:26;;;;;;;6.32;2.10;;;;;;;10.37;53.34;100724.84;5029175;28;20059;-73
2022/12/24 07:40:55;;;;;;;6.93;1.98;;;;;;;10.38;53.43;100727.47;5029434;28;20141;-72
2022/12/24 07:43:23;;;;;;;8.75;2.55;;;;;;;10.37;53.00;100727.59;5029570;28;20355;-74
2022/12/24 07:45:54;;;;;;;8.55;2.50;;;;;;;10.37;53.17;100728.47;5030205;28;20041;-73
2022/12/24 07:48:22;;;;;;;6.70;2.60;;;;;;;10.35;53.14;100744.13;5029975;28;20462;-73
2022/12/24 07:50:50;;;;;;;8.75;2.42;;;;;;;10.34;53.03;100739.66;5029268;28;20044;-70
2022/12/24 07:53:19;;;;;;;6.95;2.15;;;;;;;10.34;52.78;100750.59;5030140;28;20319;-73
2022/12/24 07:55:47;;;;;;;8.18;2.17;;;;;;;10.33;52.79;100748.88;5029647;28;20412;-72
2022/12/24 07:58:16;;;;;;;7.68;2.25;;;;;;;10.33;53.20;100750.72;5029301;28;20049;-70
2022/12/24 08:00:44;;;;;;;8.48;2.20;;;;;;;10.33;53.30;100761.66;5028961;28;20179;-74
2022/12/24 08:03:16;;;;;;;11.07;2.55;;;;;;;10.33;53.17;100761.66;5029991;28;20046;-73
2022/12/24 08:05:45;;;;;;;6.68;2.13;;;;;;;10.28;53.33;100762.09;5029302;28;20095;-70
2022/12/24 08:08:13;;;;;;;8.75;2.30;;;;;;;10.29;53.17;100762.97;5025976;28;20042;-72
2022/12/24 08:10:42;;;;;;;9.45;2.00;;;;;;;10.30;53.24;100765.56;5009616;28;20046;-71
2022/12/24 08:13:09;;;;;;;10.73;2.92;;;;;;;10.28;52.78;100767.56;5011840;28;20042;-73
2022/12/24 08:15:39;;;;;;;9.68;2.45;;;;;;;10.31;53.28;100763.69;5029220;28;20041;-73
2022/12/24 08:18:07;;;;;;;8.05;2.20;;;;;;;10.29;53.27;100771.16;5069642;23;20377;-70
2022/12/24 08:20:37;;;;;;;11.05;2.70;;;;;;;10.28;53.25;100778.50;5055374;28;20048;-70
2022/12/24 08:23:05;;;;;;;9.85;2.92;;;;;;;10.29;52.80;100784.84;5070058;28;20051;-69
2022/12/24 08:25:33;;;;;;;10.00;2.10;;;;;;;10.28;52.99;100788.56;5074366;28;20036;-69
2022/12/24 08:28:00;;;;;;;9.57;2.50;;;;;;;10.30;52.92;100790.19;5081047;28;20044;-70
2022/12/24 08:30:28;;;;;;;9.65;2.53;;;;;;;10.30;53.33;100794.78;5069643;28;20024;-72
2022/12/24 08:32:57;;;;;;;11.50;2.90;;;;;;;10.30;53.27;100792.06;5083048;28;20036;-71
2022/12/24 08:35:25;;;;;;;10.27;3.67;;;;;;;10.31;52.76;100810.19;5067456;28;20044;-72
2022/12/24 08:37:53;;;;;;;9.02;2.22;;;;;;;10.31;52.84;100805.59;5082152;28;20047;-72
2022/12/24 08:40:21;;;;;;;9.75;2.70;;;;;;;10.31;53.19;100807.47;5057163;28;20041;-72
2022/12/24 08:42:49;;;;;;;11.05;3.15;;;;;;;10.32;53.13;100803.72;5069940;28;20041;-71
2022/12/24 08:45:17;;;;;;;9.25;2.20;;;;;;;10.34;53.27;100807.19;5080335;28;20817;-71
2022/12/24 08:47:45;;;;;;;8.15;2.47;;;;;;;10.34;53.49;100809.91;5074570;28;20044;-71
2022/12/24 08:50:15;;;;;;;10.27;2.67;;;;;;;10.36;53.05;100802.44;5073431;28;20048;-72
2022/12/24 08:52:42;;;;;;;7.68;2.10;;;;;;;10.36;53.32;100805.19;5076436;28;20039;-69
2022/12/24 08:55:10;;;;;;;8.73;2.33;;;;;;;10.37;53.41;100812.41;5065278;28;20057;-70
2022/12/24 08:57:38;;;;;;;7.20;2.35;;;;;;;10.38;52.92;100809.53;5056600;28;20045;-71
2022/12/24 09:00:08;;;;;;;7.82;2.60;;;;;;;10.40;53.05;100818.44;5074046;28;20095;-72
2022/12/24 09:02:36;;;;;;;10.35;2.40;;;;;;;10.40;53.07;100812.13;5079614;28;20070;-77
2022/12/24 09:05:04;;;;;;;11.27;2.75;;;;;;;10.42;53.10;100823.78;5068598;28;20043;-72
2022/12/24 09:07:34;;;;;;;8.95;2.70;;;;;;;10.44;53.34;100821.78;5054949;28;20068;-72
2022/12/24 09:10:02;;;;;;;9.63;2.50;;;;;;;10.43;53.16;100820.94;5078660;28;20036;-72
2022/12/24 09:12:30;;;;;;;11.15;2.40;;;;;;;10.45;53.29;100831.75;5073641;28;20034;-72
2022/12/24 09:14:58;;;;;;;8.68;2.30;;;;;;;10.45;52.95;100831.75;5077603;28;20409;-70
2022/12/24 09:17:30;;;;;;;;;;;;;;;10.20;53.25;100836.63;5079873;28;20040;-69
2022/12/24 09:19:58;;;;;;;8.25;2.15;;;;;;;10.43;53.51;100841.94;5059623;28;19920;-70
2022/12/24 09:22:26;;;;;;;8.55;2.55;;;;;;;10.47;52.81;100840.69;5074201;28;20112;-71
2022/12/24 09:24:55;;;;;;;7.82;2.35;;;;;;;10.49;52.67;100847.75;5057957;28;20438;-70
2022/12/24 09:27:23;;;;;;;10.20;2.70;;;;;;;10.48;53.09;100854.22;5068144;28;20147;-70
2022/12/24 09:29:51;;;;;;;7.60;2.70;;;;;;;10.49;52.80;100863.28;5083621;28;20040;-71
2022/12/24 09:32:19;;;;;;;6.85;2.40;;;;;;;10.50;52.79;100867.75;5075392;28;20055;-71
2022/12/24 09:34:47;;;;;;;9.25;2.35;;;;;;;10.50;52.92;100873.25;5054979;28;20029;-72
2022/12/24 09:37:15;;;;;;;10.27;2.65;;;;;;;10.51;53.29;100884.06;5073140;28;20047;-71
2022/12/24 09:39:43;;;;;;;7.72;2.50;;;;;;;10.52;52.64;100884.94;5074844;28;20127;-72
2022/12/24 09:42:25;;;;;;;9.82;2.53;;;;;;;10.54;52.49;100889.31;5075403;28;20068;-72
2022/12/24 09:45:02;;;;;;;10.55;2.58;;;;;;;10.54;52.47;100910.31;5068102;28;20110;-70
2022/12/24 09:47:38;;;;;;;10.35;2.70;;;;;;;10.53;52.41;100909.47;5079732;28;20502;-71
2022/12/24 09:50:25;;;;;;;10.90;2.63;;;;;;;10.54;52.33;100911.19;5062172;28;20036;-72
2022/12/24 09:52:54;;;;;;;7.60;2.40;;;;;;;10.52;53.20;100918.63;5076741;28;20391;-70
2022/12/24 09:55:28;;;;;;;7.43;2.40;;;;;;;10.55;52.93;100912.94;5060082;28;20044;-71
2022/12/24 09:58:00;;;;;;;8.90;2.40;;;;;;;10.57;53.13;100910.03;5076904;28;20573;-71
2022/12/24 10:00:30;;;;;;;8.73;2.50;;;;;;;10.54;52.57;100908.47;5054612;28;20091;-72
2022/12/24 10:02:58;;;;;;;8.43;2.65;;;;;;;10.56;52.78;100903.72;5075718;28;20101;-69
2022/12/24 10:05:33;;;;;;;7.72;2.53;;;;;;;10.59;53.12;100916.25;5062877;28;20041;-70
2022/12/24 10:08:13;;;;;;;9.25;2.38;;;;;;;10.59;52.70;100914.41;5084068;28;20111;-71
2022/12/24 10:10:50;;;;;;;10.88;3.50;;;;;;;10.61;52.79;100922.47;5079469;28;20040;-71
2022/12/24 10:13:31;;;;;;;9.07;2.65;;;;;;;10.64;52.73;100924.09;5074995;28;20040;-71
2022/12/24 10:16:06;;;;;;;10.90;2.58;;;;;;;10.65;53.30;100925.81;5077836;28;20051;-70
2022/12/24 10:18:42;;;;;;;8.70;2.78;;;;;;;10.67;53.06;100932.00;5079184;28;20044;-71
2022/12/24 10:21:26;;;;;;;12.13;2.78;;;;;;;10.69;52.77;100927.28;5080009;28;20048;-70
2022/12/24 10:23:59;;;;;;;10.70;2.90;;;;;;;10.70;52.86;100934.50;5079803;28;20040;-71
2022/12/24 10:26:30;;;;;;;10.35;3.30;;;;;;;10.71;53.19;100928.03;5082793;28;20035;-71
2022/12/24 10:29:05;;;;;;;9.43;2.92;;;;;;;10.73;53.15;100936.97;5076975;28;20036;-71
2022/12/24 10:31:35;;;;;;;8.70;2.47;;;;;;;10.73;52.78;100939.72;5074157;28;20131;-71
2022/12/24 10:34:13;;;;;;;9.25;3.10;;;;;;;10.75;52.70;100929.47;5073265;28;20497;-71
2022/12/24 10:36:40;;;;;;;10.02;2.90;;;;;;;10.73;53.45;100934.25;5077825;28;20127;-72
2022/12/24 10:39:16;;;;;;;11.30;2.83;;;;;;;10.77;52.60;100930.22;5079842;28;20036;-71
2022/12/24 10:41:46;;;;;;;8.95;2.80;;;;;;;10.75;52.96;100933.09;5074581;28;20041;-70
2022/12/24 10:44:18;;;;;;;9.25;2.70;;;;;;;10.79;52.94;100934.56;5075445;28;20032;-71
2022/12/24 10:46:46;;;;;;;9.50;2.67;;;;;;;10.76;52.95;100926.59;5069578;28;20032;-72
2022/12/24 10:49:16;;;;;;;10.85;3.55;;;;;;;10.79;53.08;100929.09;5078278;28;20639;-70
2022/12/24 10:51:49;;;;;;;10.98;2.70;;;;;;;10.81;52.91;100929.78;5070189;28;20040;-70
2022/12/24 10:54:18;;;;;;;;;;;;;;;10.55;53.52;100928.50;5079641;28;20400;-71
2022/12/24 10:56:57;;;;;;;9.65;2.88;;;;;;;10.78;52.88;100927.34;5073627;28;20149;-71
2022/12/24 10:59:29;;;;;;;10.88;2.80;;;;;;;10.83;52.68;100919.59;5087547;28;20127;-71
2022/12/24 11:01:58;;;;;;;6.70;2.53;;;;;;;10.82;53.26;100923.31;5060638;28;20404;-71
2022/12/24 11:04:29;;;;;;;7.43;2.38;;;;;;;10.85;52.88;100925.81;5082522;28;20093;-73
2022/12/24 11:06:58;;;;;;;11.52;2.75;;;;;;;10.86;53.20;100916.59;5060962;28;20497;-72
2022/12/24 11:09:28;;;;;;;8.30;2.80;;;;;;;10.88;52.65;100911.00;5072348;28;20051;-70
2022/12/24 11:11:57;;;;;;;10.15;2.75;;;;;;;10.88;52.85;100911.84;5063164;28;20051;-71
2022/12/24 11:14:36;;;;;;;9.43;3.08;;;;;;;10.89;52.69;100924.56;5064240;28;20580;-71
2022/12/24 11:17:04;;;;;;;13.30;2.83;;;;;;;10.88;53.20;100916.47;5071287;28;20556;-71
2022/12/24 11:19:35;;;;;;;11.98;3.13;;;;;;;10.92;53.13;100917.91;5059439;28;20286;-72
2022/12/24 11:22:05;;;;;;;12.15;2.97;;;;;;;10.93;53.24;100905.97;5065764;28;20136;-72
2022/12/24 11:24:35;;;;;;;9.95;2.65;;;;;;;10.95;53.09;100921.25;5055251;28;20044;-72
2022/12/24 11:27:24;;;;;;;10.98;2.72;;;;;;;10.96;52.72;100917.53;5078465;28;20709;-72
2022/12/24 11:30:20;;;;;;;7.50;2.35;;;;;;;10.98;52.45;100922.84;5083665;28;20123;-72
2022/12/24 11:32:50;;;;;;;8.68;2.70;;;;;;;11.01;52.78;100910.75;5061349;28;20068;-72
2022/12/24 11:35:21;;;;;;;11.25;2.90;;;;;;;11.04;52.68;100910.50;5076892;28;20051;-72
2022/12/24 11:37:49;;;;;;;9.95;2.80;;;;;;;11.05;52.83;100921.31;5066783;28;20052;-72
2022/12/24 11:40:21;;;;;;;9.60;2.95;;;;;;;11.10;52.48;100916.28;5083244;28;20102;-72
2022/12/24 11:42:52;;;;;;;11.45;3.13;;;;;;;11.11;53.34;100917.16;5080148;28;20119;-74
2022/12/24 11:45:24;;;;;;;10.90;2.92;;;;;;;11.18;53.08;100916.47;5073350;28;20302;-73
2022/12/24 11:47:53;;;;;;;;;;;;;;;10.95;53.62;100917.66;5063737;28;20044;-73